createdAt,value
2022-12-25T00:01:22.457Z,23.20
2022-12-25T00:03:55.057Z,25.20
2022-12-25T00:06:27.051Z,26.40
2022-12-25T00:08:58.697Z,25.20
2022-12-25T00:11:30.378Z,25.80
2022-12-25T00:14:01.984Z,24.00
2022-12-25T00:16:33.718Z,22.80
2022-12-25T00:19:05.673Z,24.00
2022-12-25T00:21:37.404Z,24.10
2022-12-25T00:24:10.507Z,25.00
2022-12-25T00:26:42.130Z,26.20
2022-12-25T00:29:14.818Z,32.50
2022-12-25T00:31:46.601Z,30.30
2022-12-25T00:34:18.334Z,28.50
2022-12-25T00:36:52.862Z,28.70
2022-12-25T00:39:24.509Z,32.20
2022-12-25T00:42:13.839Z,33.80
2022-12-25T00:44:45.471Z,33.30
2022-12-25T00:47:18.062Z,37.60
2022-12-25T00:49:49.805Z,34.00
2022-12-25T00:52:21.539Z,34.80
2022-12-25T00:54:53.182Z,36.70
2022-12-25T00:57:25.843Z,35.40
2022-12-25T00:59:57.427Z,32.30
2022-12-25T01:02:29.322Z,36.70
2022-12-25T01:05:01.091Z,37.10
2022-12-25T01:07:32.773Z,37.00
2022-12-25T01:10:23.461Z,37.20
2022-12-25T01:12:55.115Z,38.70
2022-12-25T01:15:26.937Z,39.30
2022-12-25T01:18:00.669Z,35.70
2022-12-25T01:20:37.820Z,35.10
2022-12-25T01:25:40.346Z,32.50
2022-12-25T01:28:11.994Z,32.80
2022-12-25T01:30:50.491Z,28.90
2022-12-25T01:33:22.233Z,27.60
2022-12-25T01:35:53.866Z,25.60
2022-12-25T01:38:25.596Z,25.70
2022-12-25T01:40:57.469Z,23.70
2022-12-25T01:43:32.581Z,22.60
2022-12-25T01:46:05.250Z,21.60
2022-12-25T01:48:39.586Z,23.10
2022-12-25T01:51:21.567Z,25.10
2022-12-25T01:53:53.915Z,27.20
2022-12-25T01:56:27.251Z,24.60
2022-12-25T01:59:00.443Z,26.80
2022-12-25T02:01:32.346Z,26.70
2022-12-25T02:04:10.527Z,26.30
2022-12-25T02:06:42.585Z,26.30
2022-12-25T02:09:15.172Z,26.30
2022-12-25T02:11:58.053Z,27.10
2022-12-25T02:14:33.247Z,25.90
2022-12-25T02:17:12.503Z,26.50
2022-12-25T02:20:13.062Z,24.60
2022-12-25T02:22:57.333Z,25.20
2022-12-25T02:25:44.335Z,25.20
2022-12-25T02:28:22.572Z,24.00
2022-12-25T02:30:57.633Z,23.80
2022-12-25T02:33:55.174Z,22.00
2022-12-25T02:36:33.624Z,23.90
2022-12-25T02:39:32.300Z,22.50
2022-12-25T02:42:07.939Z,21.00
2022-12-25T02:45:03.180Z,20.80
2022-12-25T02:47:54.363Z,20.90
2022-12-25T02:50:49.759Z,20.10
2022-12-25T02:53:42.437Z,19.20
2022-12-25T02:56:35.574Z,18.30
2022-12-25T02:59:26.654Z,18.60
2022-12-25T03:02:16.658Z,18.60
2022-12-25T03:05:08.127Z,19.00
2022-12-25T03:07:43.003Z,19.10
2022-12-25T03:10:36.088Z,19.70
2022-12-25T03:13:16.863Z,19.80
2022-12-25T03:16:08.826Z,20.60
2022-12-25T03:18:40.814Z,21.30
2022-12-25T03:21:32.258Z,20.60
2022-12-25T03:24:22.540Z,20.40
2022-12-25T03:26:57.672Z,21.00
2022-12-25T03:29:52.739Z,20.50
2022-12-25T03:32:46.881Z,19.90
2022-12-25T03:35:27.483Z,19.70
2022-12-25T03:38:52.201Z,20.40
2022-12-25T03:41:50.763Z,19.00
2022-12-25T03:45:00.940Z,20.40
2022-12-25T03:47:56.933Z,20.20
2022-12-25T03:50:52.282Z,20.00
2022-12-25T03:53:46.230Z,19.60
2022-12-25T03:56:37.217Z,20.40
2022-12-25T03:59:26.477Z,19.30
2022-12-25T04:02:15.961Z,19.90
2022-12-25T04:05:07.075Z,19.60
2022-12-25T04:07:56.523Z,20.10
2022-12-25T04:10:46.341Z,19.40
2022-12-25T04:13:36.238Z,20.30
2022-12-25T04:16:28.314Z,20.90
2022-12-25T04:19:17.707Z,19.50
2022-12-25T04:22:06.921Z,18.90
2022-12-25T04:24:56.407Z,20.00
2022-12-25T04:27:45.870Z,20.90
2022-12-25T04:30:35.101Z,20.40
2022-12-25T04:33:24.797Z,19.90
2022-12-25T04:36:12.260Z,20.70
2022-12-25T04:38:49.051Z,20.80
2022-12-25T04:41:20.779Z,20.60
2022-12-25T04:43:54.988Z,20.30
2022-12-25T04:46:29.869Z,20.70
2022-12-25T04:49:01.541Z,20.20
2022-12-25T04:51:33.318Z,20.90
2022-12-25T04:54:07.678Z,20.70
2022-12-25T04:56:45.244Z,20.60
2022-12-25T04:59:18.463Z,20.80
2022-12-25T05:01:52.670Z,21.40
2022-12-25T05:04:24.433Z,19.80
2022-12-25T05:06:56.275Z,20.30
2022-12-25T05:09:28.728Z,19.80
2022-12-25T05:12:00.753Z,20.40
2022-12-25T05:14:32.499Z,19.20
2022-12-25T05:17:04.500Z,19.50
2022-12-25T05:19:36.273Z,20.70
2022-12-25T05:22:07.944Z,19.30
2022-12-25T05:24:39.546Z,20.10
2022-12-25T05:27:14.005Z,19.50
2022-12-25T05:29:47.499Z,20.00
2022-12-25T05:32:21.871Z,18.60
2022-12-25T05:34:53.535Z,19.20
2022-12-25T05:37:25.143Z,19.90
2022-12-25T05:39:59.431Z,20.40
2022-12-25T05:42:35.472Z,19.30
2022-12-25T05:45:10.491Z,19.10
2022-12-25T05:47:42.128Z,19.30
2022-12-25T05:50:17.016Z,18.70
2022-12-25T05:52:50.642Z,17.80
2022-12-25T05:57:52.694Z,17.60
2022-12-25T06:00:30.783Z,16.90
2022-12-25T06:03:02.639Z,18.10
2022-12-25T06:05:34.861Z,17.20
2022-12-25T06:08:06.626Z,18.40
2022-12-25T06:10:40.666Z,17.20
2022-12-25T06:13:15.084Z,19.10
2022-12-25T06:15:46.899Z,19.50
2022-12-25T06:18:18.695Z,19.50
2022-12-25T06:20:51.383Z,20.20
2022-12-25T06:23:23.117Z,17.70
2022-12-25T06:25:54.921Z,19.50
2022-12-25T06:28:34.478Z,18.90
2022-12-25T06:31:10.778Z,19.80
2022-12-25T06:33:43.080Z,19.50
2022-12-25T06:36:17.382Z,18.90
2022-12-25T06:38:49.733Z,19.40
2022-12-25T06:41:25.675Z,18.80
2022-12-25T06:44:01.592Z,18.50
2022-12-25T06:46:33.581Z,18.40
2022-12-25T06:49:05.357Z,16.90
2022-12-25T06:51:37.302Z,17.50
2022-12-25T06:54:10.541Z,17.00
2022-12-25T06:56:42.353Z,14.40
2022-12-25T06:59:17.126Z,17.90
2022-12-25T07:01:53.516Z,18.60
2022-12-25T07:04:31.935Z,16.90
2022-12-25T07:07:08.715Z,18.20
2022-12-25T07:09:44.301Z,18.50
2022-12-25T07:12:20.973Z,20.10
2022-12-25T07:14:54.580Z,19.80
2022-12-25T07:19:57.239Z,18.60
2022-12-25T07:22:31.191Z,17.20
2022-12-25T07:25:02.841Z,16.10
2022-12-25T07:27:34.555Z,16.00
2022-12-25T07:30:08.042Z,19.70
2022-12-25T07:32:39.633Z,19.60
2022-12-25T07:35:12.004Z,19.30
2022-12-25T07:37:43.928Z,19.60
2022-12-25T07:40:16.154Z,18.40
2022-12-25T07:42:47.803Z,16.40
2022-12-25T07:45:19.638Z,19.30
2022-12-25T07:47:53.855Z,21.40
2022-12-25T07:50:26.821Z,21.60
2022-12-25T07:52:59.487Z,21.10
2022-12-25T07:55:31.219Z,22.50
2022-12-25T07:58:02.856Z,22.50
2022-12-25T08:00:34.547Z,21.70
2022-12-25T08:03:06.673Z,23.30
2022-12-25T08:05:38.760Z,23.10
2022-12-25T08:08:10.611Z,24.10
2022-12-25T08:10:47.653Z,25.50
2022-12-25T08:13:19.264Z,24.20
2022-12-25T08:15:50.943Z,24.10
2022-12-25T08:18:29.509Z,21.90
2022-12-25T08:21:05.176Z,25.20
2022-12-25T08:23:38.685Z,26.80
2022-12-25T08:26:12.901Z,22.20
2022-12-25T08:28:44.637Z,27.20
2022-12-25T08:31:23.559Z,27.30
2022-12-25T08:33:57.032Z,35.30
2022-12-25T08:36:28.780Z,34.70
2022-12-25T08:39:03.253Z,35.20
2022-12-25T08:41:36.891Z,35.40
2022-12-25T08:44:08.887Z,34.20
2022-12-25T08:46:40.863Z,32.90
2022-12-25T08:49:12.686Z,36.00
2022-12-25T08:51:46.850Z,34.70
2022-12-25T08:54:18.682Z,32.50
2022-12-25T08:56:51.368Z,32.30
2022-12-25T08:59:23.353Z,33.60
2022-12-25T09:01:55.118Z,32.20
2022-12-25T09:04:27.052Z,32.30
2022-12-25T09:06:58.781Z,31.10
2022-12-25T09:09:31.533Z,29.00
2022-12-25T09:12:03.337Z,29.00
2022-12-25T09:14:35.091Z,30.20
2022-12-25T09:17:06.725Z,30.40
2022-12-25T09:19:38.409Z,30.30
2022-12-25T09:22:10.100Z,28.90
2022-12-25T09:24:43.758Z,29.10
2022-12-25T09:29:45.788Z,26.70
2022-12-25T09:32:17.399Z,27.70
2022-12-25T09:34:49.138Z,24.60
2022-12-25T09:37:20.856Z,24.50
2022-12-25T09:39:52.572Z,24.40
2022-12-25T09:42:26.435Z,23.90
2022-12-25T09:45:01.960Z,23.20
2022-12-25T09:47:37.044Z,23.80
2022-12-25T09:50:16.290Z,22.60
2022-12-25T09:52:54.082Z,21.50
2022-12-25T09:55:27.749Z,21.40
2022-12-25T10:00:38.208Z,21.90
2022-12-25T10:03:26.304Z,21.00
2022-12-25T10:06:12.070Z,22.60
2022-12-25T10:09:13.968Z,22.20
2022-12-25T10:12:07.635Z,22.00
2022-12-25T10:14:51.686Z,21.30
2022-12-25T10:20:12.347Z,18.60
2022-12-25T10:22:47.686Z,18.70
2022-12-25T10:25:22.394Z,18.40
2022-12-25T10:27:57.496Z,18.40
2022-12-25T10:30:30.789Z,17.80
2022-12-25T10:33:02.957Z,17.80
2022-12-25T10:35:34.757Z,18.60
2022-12-25T10:38:13.597Z,20.00
2022-12-25T10:40:59.369Z,20.30
2022-12-25T10:43:38.106Z,21.80
2022-12-25T10:46:15.521Z,20.90
2022-12-25T10:48:51.248Z,20.50
2022-12-25T10:51:34.568Z,19.90
2022-12-25T10:54:20.419Z,20.60
2022-12-25T10:57:00.794Z,19.20
2022-12-25T10:59:35.854Z,18.60
2022-12-25T11:02:21.113Z,18.50
2022-12-25T11:04:59.313Z,18.40
2022-12-25T11:07:31.627Z,16.10
2022-12-25T11:10:06.274Z,13.10
2022-12-25T11:12:43.192Z,11.20
2022-12-25T11:15:36.476Z,11.00
2022-12-25T11:18:20.993Z,9.20
2022-12-25T11:20:54.804Z,9.70
2022-12-25T11:26:03.591Z,10.20
2022-12-25T11:28:39.640Z,11.10
2022-12-25T11:31:15.073Z,11.70
2022-12-25T11:33:53.558Z,10.40
2022-12-25T11:36:33.000Z,9.00
2022-12-25T11:39:15.893Z,9.00
2022-12-25T11:41:49.391Z,9.00
2022-12-25T11:44:31.766Z,8.00
2022-12-25T11:47:13.015Z,7.60
2022-12-25T11:49:52.178Z,7.20
2022-12-25T11:52:30.402Z,6.50
2022-12-25T11:55:06.638Z,6.40
2022-12-25T11:57:41.190Z,5.40
2022-12-25T12:00:17.695Z,5.90
2022-12-25T12:02:56.089Z,6.80
2022-12-25T12:05:33.977Z,6.80
2022-12-25T12:08:07.460Z,7.20
2022-12-25T12:10:55.291Z,7.10
2022-12-25T12:13:41.525Z,7.30
2022-12-25T12:16:13.401Z,7.20
2022-12-25T12:18:50.272Z,7.50
2022-12-25T12:21:25.788Z,7.30
2022-12-25T12:24:02.390Z,8.00
2022-12-25T12:26:38.188Z,7.40
2022-12-25T12:29:25.429Z,6.40
2022-12-25T12:32:02.321Z,6.90
2022-12-25T12:34:42.679Z,8.10
2022-12-25T12:37:25.135Z,7.90
2022-12-25T12:39:58.156Z,8.90
2022-12-25T12:42:32.720Z,8.20
2022-12-25T12:45:17.140Z,7.90
2022-12-25T12:47:51.196Z,8.00
2022-12-25T12:50:40.867Z,8.70
2022-12-25T12:53:32.044Z,8.80
2022-12-25T12:56:16.385Z,8.00
2022-12-25T12:58:51.117Z,7.60
2022-12-25T13:01:38.482Z,8.10
2022-12-25T13:04:37.252Z,7.80
2022-12-25T13:07:18.908Z,7.50
2022-12-25T13:10:03.799Z,7.80
2022-12-25T13:12:35.783Z,7.30
2022-12-25T13:15:15.286Z,7.60
2022-12-25T13:17:50.029Z,7.30
2022-12-25T13:20:32.254Z,7.90
2022-12-25T13:23:13.562Z,7.70
2022-12-25T13:25:52.316Z,6.70
2022-12-25T13:28:29.759Z,7.80
2022-12-25T13:31:07.192Z,7.50
2022-12-25T13:33:40.175Z,7.90
2022-12-25T13:36:15.059Z,8.90
2022-12-25T13:38:49.344Z,8.60
2022-12-25T13:41:42.102Z,9.50
2022-12-25T13:44:21.174Z,10.60
2022-12-25T13:46:53.138Z,11.60
2022-12-25T13:49:25.834Z,11.50
2022-12-25T13:52:12.302Z,12.80
2022-12-25T13:54:58.052Z,12.60
2022-12-25T13:57:34.598Z,11.20
2022-12-25T14:00:09.275Z,11.70
2022-12-25T14:02:41.884Z,11.80
2022-12-25T14:05:28.335Z,12.80
2022-12-25T14:08:03.256Z,14.20
2022-12-25T14:10:39.127Z,15.60
2022-12-25T14:13:15.668Z,16.50
2022-12-25T14:15:49.067Z,18.20
2022-12-25T14:18:22.673Z,20.40
2022-12-25T14:21:03.655Z,21.60
2022-12-25T14:23:42.986Z,20.40
2022-12-25T14:26:20.007Z,19.80
2022-12-25T14:28:54.334Z,20.10
2022-12-25T14:31:29.481Z,20.30
2022-12-25T14:34:04.348Z,19.80
2022-12-25T14:36:36.664Z,17.90
2022-12-25T14:39:25.583Z,18.40
2022-12-25T14:41:57.646Z,16.50
2022-12-25T14:44:34.787Z,16.20
2022-12-25T14:47:22.772Z,16.90
2022-12-25T14:49:54.783Z,16.10
2022-12-25T14:52:29.175Z,16.20
2022-12-25T14:55:03.927Z,16.10
2022-12-25T14:57:39.031Z,16.40
2022-12-25T15:00:25.063Z,18.50
2022-12-25T15:02:59.738Z,18.60
2022-12-25T15:05:34.614Z,20.40
2022-12-25T15:08:23.061Z,20.40
2022-12-25T15:11:01.218Z,25.60
2022-12-25T15:13:36.176Z,24.20
2022-12-25T15:18:45.737Z,26.80
2022-12-25T15:21:26.124Z,26.90
2022-12-25T15:24:00.031Z,26.90
2022-12-25T15:26:33.685Z,28.00
2022-12-25T15:31:37.353Z,29.90
2022-12-25T15:36:40.661Z,27.60
2022-12-25T15:39:12.525Z,26.70
2022-12-25T15:42:01.743Z,27.10
2022-12-25T15:44:33.430Z,26.50
2022-12-25T15:47:05.401Z,27.90
2022-12-25T15:49:37.014Z,27.80
2022-12-25T15:52:12.721Z,29.20
2022-12-25T15:54:44.329Z,29.80
2022-12-25T15:57:20.542Z,28.80
2022-12-25T15:59:52.260Z,29.40
2022-12-25T16:02:24.113Z,30.50
2022-12-25T16:04:56.113Z,32.70
2022-12-25T16:07:29.303Z,34.10
2022-12-25T16:10:01.013Z,27.10
2022-12-25T16:12:32.748Z,33.90
2022-12-25T16:15:04.949Z,27.40
2022-12-25T16:17:36.592Z,34.70
2022-12-25T16:20:10.463Z,36.40
2022-12-25T16:22:42.075Z,32.70
2022-12-25T16:25:19.429Z,33.60
2022-12-25T16:27:51.009Z,36.90
2022-12-25T16:30:22.983Z,37.20
2022-12-25T16:32:54.750Z,39.60
2022-12-25T16:35:26.380Z,39.80
2022-12-25T16:37:58.228Z,39.60
2022-12-25T16:40:30.652Z,36.20
2022-12-25T16:43:02.649Z,36.20
2022-12-25T16:45:38.281Z,40.70
2022-12-25T16:48:10.445Z,38.20
2022-12-25T16:50:42.627Z,37.50
2022-12-25T16:53:14.315Z,37.90
2022-12-25T16:55:46.022Z,37.10
2022-12-25T16:58:17.601Z,34.40
2022-12-25T17:00:49.775Z,38.90
2022-12-25T17:03:21.565Z,37.50
2022-12-25T17:05:53.483Z,39.60
2022-12-25T17:08:25.053Z,33.20
2022-12-25T17:10:57.058Z,33.80
2022-12-25T17:13:28.676Z,38.70
2022-12-25T17:16:00.319Z,38.80
2022-12-25T17:18:32.077Z,38.20
2022-12-25T17:21:04.304Z,40.20
2022-12-25T17:23:37.115Z,40.10
2022-12-25T17:26:09.319Z,34.30
2022-12-25T17:28:40.922Z,49.70
2022-12-25T17:31:14.789Z,48.20
2022-12-25T17:33:46.887Z,49.70
2022-12-25T17:36:20.363Z,52.20
2022-12-25T17:38:52.061Z,50.40
2022-12-25T17:41:23.850Z,47.50
2022-12-25T17:43:55.458Z,47.90
2022-12-25T17:46:28.974Z,47.60
2022-12-25T17:51:32.694Z,38.60
2022-12-25T17:54:04.664Z,47.20
2022-12-25T17:56:36.730Z,38.70
2022-12-25T17:59:12.104Z,48.50
2022-12-25T18:01:43.801Z,50.30
2022-12-25T18:04:15.980Z,47.60
2022-12-25T18:06:47.853Z,48.70
2022-12-25T18:09:20.061Z,49.30
2022-12-25T18:11:52.037Z,49.20
2022-12-25T18:14:24.927Z,40.80
2022-12-25T18:16:57.422Z,45.00
2022-12-25T18:19:29.047Z,40.10
2022-12-25T18:22:00.838Z,51.80
2022-12-25T18:24:32.890Z,54.00
2022-12-25T18:27:04.647Z,53.80
2022-12-25T18:29:36.245Z,55.80
2022-12-25T18:32:08.329Z,54.10
2022-12-25T18:34:40.026Z,55.10
2022-12-25T18:37:11.805Z,54.20
2022-12-25T18:39:43.465Z,56.30
2022-12-25T18:42:33.172Z,54.10
2022-12-25T18:45:05.459Z,53.30
2022-12-25T18:47:37.539Z,54.10
2022-12-25T18:50:11.542Z,52.60
2022-12-25T18:52:47.808Z,51.50
2022-12-25T18:55:25.863Z,44.10
2022-12-25T18:57:57.970Z,47.60
2022-12-25T19:00:29.728Z,55.30
2022-12-25T19:03:02.177Z,47.10
2022-12-25T19:05:34.050Z,49.00
2022-12-25T19:08:06.227Z,47.90
2022-12-25T19:10:39.354Z,49.60
2022-12-25T19:13:12.220Z,45.40
2022-12-25T19:15:45.193Z,48.40
2022-12-25T19:18:16.980Z,42.60
2022-12-25T19:20:48.934Z,45.40
2022-12-25T19:23:21.238Z,43.60
2022-12-25T19:25:53.597Z,45.20
2022-12-25T19:28:27.437Z,49.10
2022-12-25T19:31:02.731Z,56.30
2022-12-25T19:33:35.352Z,57.10
2022-12-25T19:36:10.988Z,58.90
2022-12-25T19:38:43.972Z,56.10
2022-12-25T19:41:17.846Z,57.30
2022-12-25T19:43:52.122Z,53.30
2022-12-25T19:46:26.813Z,45.80
2022-12-25T19:49:04.275Z,43.70
2022-12-25T19:51:39.215Z,51.80
2022-12-25T19:54:15.667Z,38.50
2022-12-25T19:56:48.099Z,37.60
2022-12-25T19:59:19.962Z,36.50
2022-12-25T20:01:52.014Z,37.40
2022-12-25T20:04:24.039Z,37.50
2022-12-25T20:06:55.689Z,41.90
2022-12-25T20:09:27.307Z,46.50
2022-12-25T20:11:58.961Z,45.30
2022-12-25T20:14:30.622Z,43.50
2022-12-25T20:17:02.375Z,45.10
2022-12-25T20:19:34.545Z,42.20
2022-12-25T20:22:06.131Z,42.10
2022-12-25T20:24:37.787Z,37.40
2022-12-25T20:27:09.547Z,39.20
2022-12-25T20:29:41.190Z,40.40
2022-12-25T20:32:13.033Z,41.10
2022-12-25T20:34:44.891Z,50.00
2022-12-25T20:37:16.544Z,48.50
2022-12-25T20:39:48.381Z,50.70
2022-12-25T20:42:20.373Z,49.00
2022-12-25T20:44:52.583Z,47.80
2022-12-25T20:47:24.497Z,49.90
2022-12-25T20:49:56.364Z,47.50
2022-12-25T20:52:28.034Z,48.20
2022-12-25T20:54:59.637Z,48.50
2022-12-25T20:57:31.560Z,46.00
2022-12-25T21:00:05.062Z,45.10
2022-12-25T21:02:37.954Z,45.50
2022-12-25T21:05:12.444Z,43.80
2022-12-25T21:07:44.081Z,43.40
2022-12-25T21:10:15.858Z,41.30
2022-12-25T21:12:47.488Z,40.00
2022-12-25T21:15:19.447Z,41.50
2022-12-25T21:17:51.038Z,38.40
2022-12-25T21:20:22.620Z,38.50
2022-12-25T21:22:54.242Z,38.10
2022-12-25T21:25:25.881Z,38.30
2022-12-25T21:27:57.618Z,38.60
2022-12-25T21:30:29.280Z,40.70
2022-12-25T21:33:18.706Z,40.70
2022-12-25T21:35:50.832Z,41.80
2022-12-25T21:38:22.479Z,43.50
2022-12-25T21:40:54.102Z,42.20
2022-12-25T21:43:25.716Z,44.10
2022-12-25T21:45:57.374Z,44.90
2022-12-25T21:48:28.977Z,44.40
2022-12-25T21:51:23.425Z,43.80
2022-12-25T21:53:55.129Z,32.30
2022-12-25T21:56:28.157Z,40.10
2022-12-25T21:59:01.519Z,35.40
2022-12-25T22:01:35.405Z,38.30
2022-12-25T22:04:09.027Z,39.40
2022-12-25T22:06:58.866Z,38.50
2022-12-25T22:09:30.807Z,39.60
2022-12-25T22:12:20.646Z,41.30
2022-12-25T22:14:56.356Z,38.30
2022-12-25T22:17:47.640Z,39.30
2022-12-25T22:20:21.652Z,40.20
2022-12-25T22:22:53.807Z,37.50
2022-12-25T22:25:25.999Z,40.10
2022-12-25T22:27:58.489Z,40.30
2022-12-25T22:30:31.956Z,39.00
2022-12-25T22:33:03.779Z,33.80
2022-12-25T22:35:35.424Z,38.30
2022-12-25T22:38:07.181Z,38.40
2022-12-25T22:40:39.032Z,41.00
2022-12-25T22:43:10.891Z,38.60
2022-12-25T22:45:42.557Z,37.90
2022-12-25T22:48:14.191Z,39.00
2022-12-25T22:50:45.819Z,38.40
2022-12-25T22:53:17.506Z,37.60
2022-12-25T22:55:49.791Z,36.90
2022-12-25T22:58:21.521Z,38.00
2022-12-25T23:00:53.247Z,38.10
2022-12-25T23:03:25.042Z,36.30
2022-12-25T23:05:57.818Z,39.10
2022-12-25T23:08:29.592Z,37.20
2022-12-25T23:11:05.675Z,35.50
2022-12-25T23:13:55.913Z,38.00
2022-12-25T23:16:27.656Z,39.30
2022-12-25T23:19:17.162Z,40.30
2022-12-25T23:22:18.021Z,34.20
2022-12-25T23:25:07.792Z,36.80
2022-12-25T23:27:39.443Z,36.60
2022-12-25T23:30:13.592Z,36.70
2022-12-25T23:32:46.025Z,37.10
2022-12-25T23:35:17.616Z,37.40
2022-12-25T23:37:52.998Z,37.20
2022-12-25T23:40:24.731Z,37.00
2022-12-25T23:42:56.351Z,36.20
2022-12-25T23:45:27.979Z,37.60
2022-12-25T23:47:59.678Z,34.20
2022-12-25T23:50:31.296Z,36.30
2022-12-25T23:53:02.901Z,37.50
2022-12-25T23:55:36.399Z,36.40
2022-12-25T23:58:08.174Z,35.60
